createdAt,value
2023-03-19T00:02:16.178Z,100436.44
2023-03-19T00:04:43.513Z,100447.31
2023-03-19T00:07:10.136Z,100367.94
2023-03-19T00:09:36.684Z,100427.91
2023-03-19T00:12:03.393Z,100441.03
2023-03-19T00:14:29.751Z,100366.81
2023-03-19T00:16:56.305Z,100428.50
2023-03-19T00:19:22.720Z,100358.16
2023-03-19T00:21:49.085Z,100432.25
2023-03-19T00:24:16.105Z,100436.81
2023-03-19T00:26:42.437Z,100418.59
2023-03-19T00:29:09.570Z,100404.06
2023-03-19T00:31:36.101Z,100304.44
2023-03-19T00:34:03.650Z,100359.06
2023-03-19T00:36:30.411Z,100392.41
2023-03-19T00:38:57.542Z,100433.78
2023-03-19T00:41:24.454Z,100333.38
2023-03-19T00:43:55.554Z,100441.63
2023-03-19T00:46:22.903Z,100399.34
2023-03-19T00:48:51.088Z,100438.31
2023-03-19T00:51:17.529Z,100393.28
2023-03-19T00:53:44.698Z,100387.25
2023-03-19T00:56:13.067Z,100423.06
2023-03-19T00:59:00.601Z,100431.97
2023-03-19T01:01:27.221Z,100412.88
2023-03-19T01:03:53.544Z,100413.34
2023-03-19T01:06:19.899Z,100428.81
2023-03-19T01:08:46.281Z,100448.28
2023-03-19T01:11:15.206Z,100317.03
2023-03-19T01:13:42.131Z,100317.50
2023-03-19T01:16:09.451Z,100435.50
2023-03-19T01:18:36.143Z,100337.22
2023-03-19T01:21:03.644Z,100325.03
2023-03-19T01:23:30.644Z,100279.91
2023-03-19T01:25:57.429Z,100321.38
2023-03-19T01:28:23.990Z,100306.06
2023-03-19T01:30:50.852Z,100431.75
2023-03-19T01:33:18.022Z,100443.09
2023-03-19T01:35:47.635Z,100425.81
2023-03-19T01:38:14.067Z,100443.31
2023-03-19T01:40:47.858Z,100444.50
2023-03-19T01:43:19.905Z,100451.41
2023-03-19T01:45:48.093Z,100446.03
2023-03-19T01:48:40.807Z,100393.56
2023-03-19T01:51:10.507Z,100296.59
2023-03-19T01:53:39.402Z,100444.00
2023-03-19T01:56:14.085Z,100213.81
2023-03-19T01:58:43.766Z,100339.91
2023-03-19T02:01:10.562Z,100361.25
2023-03-19T02:03:39.298Z,100446.16
2023-03-19T02:06:06.505Z,100395.34
2023-03-19T02:08:33.987Z,100421.22
2023-03-19T02:11:02.019Z,100347.75
2023-03-19T02:13:28.541Z,100421.16
2023-03-19T02:15:55.381Z,100422.22
2023-03-19T02:18:22.575Z,100419.44
2023-03-19T02:21:05.639Z,100423.75
2023-03-19T02:23:59.339Z,100417.72
2023-03-19T02:26:29.339Z,100422.03
2023-03-19T02:28:55.746Z,100358.16
2023-03-19T02:31:23.236Z,100435.19
2023-03-19T02:34:26.775Z,100354.34
2023-03-19T02:37:05.320Z,100412.75
2023-03-19T02:39:38.416Z,100331.66
2023-03-19T02:42:06.000Z,100388.94
2023-03-19T02:44:32.452Z,100394.00
2023-03-19T02:46:59.501Z,100275.09
2023-03-19T02:49:26.019Z,100339.66
2023-03-19T02:51:52.390Z,100433.00
2023-03-19T02:54:18.733Z,100423.97
2023-03-19T02:56:46.086Z,100430.66
2023-03-19T02:59:13.330Z,100328.34
2023-03-19T03:01:39.844Z,100427.03
2023-03-19T03:04:06.497Z,100426.16
2023-03-19T03:06:32.875Z,100400.72
2023-03-19T03:08:59.288Z,100403.63
2023-03-19T03:11:25.665Z,100412.81
2023-03-19T03:13:52.016Z,100443.13
2023-03-19T03:16:18.460Z,100397.50
2023-03-19T03:18:44.824Z,100414.09
2023-03-19T03:21:11.704Z,100445.75
2023-03-19T03:23:38.204Z,100407.69
2023-03-19T03:26:04.703Z,100328.81
2023-03-19T03:28:31.058Z,100326.19
2023-03-19T03:31:02.165Z,100404.72
2023-03-19T03:33:28.640Z,100413.84
2023-03-19T03:35:55.914Z,100438.66
2023-03-19T03:38:23.493Z,100331.13
2023-03-19T03:40:52.381Z,100346.19
2023-03-19T03:43:20.739Z,100456.66
2023-03-19T03:45:48.731Z,100451.28
2023-03-19T03:48:16.040Z,100451.44
2023-03-19T03:50:42.897Z,100429.22
2023-03-19T03:53:10.225Z,100454.19
2023-03-19T03:55:36.874Z,100350.34
2023-03-19T03:58:03.734Z,100455.56
2023-03-19T04:00:30.209Z,100337.72
2023-03-19T04:02:56.617Z,100438.66
2023-03-19T04:05:23.070Z,100443.94
2023-03-19T04:07:49.422Z,100463.25
2023-03-19T04:10:15.771Z,100341.84
2023-03-19T04:12:42.244Z,100400.00
2023-03-19T04:15:11.073Z,100389.81
2023-03-19T04:17:38.422Z,100482.91
2023-03-19T04:20:05.597Z,100487.84
2023-03-19T04:22:31.982Z,100480.19
2023-03-19T04:24:58.508Z,100358.47
2023-03-19T04:27:26.168Z,100431.44
2023-03-19T04:29:52.544Z,100340.97
2023-03-19T04:32:19.046Z,100405.09
2023-03-19T04:34:45.440Z,100476.34
2023-03-19T04:37:12.438Z,100450.69
2023-03-19T04:39:41.065Z,100484.81
2023-03-19T04:42:07.501Z,100493.25
2023-03-19T04:44:33.912Z,100412.34
2023-03-19T04:47:00.405Z,100495.06
2023-03-19T04:49:27.301Z,100384.38
2023-03-19T04:51:53.693Z,100411.97
2023-03-19T04:54:20.726Z,100502.75
2023-03-19T04:56:47.228Z,100457.38
2023-03-19T04:59:13.599Z,100395.50
2023-03-19T05:01:40.058Z,100401.00
2023-03-19T05:04:07.161Z,100524.53
2023-03-19T05:06:33.980Z,100483.72
2023-03-19T05:09:00.831Z,100486.44
2023-03-19T05:11:27.385Z,100397.25
2023-03-19T05:13:53.763Z,100468.88
2023-03-19T05:16:20.265Z,100445.53
2023-03-19T05:18:46.824Z,100489.44
2023-03-19T05:21:13.659Z,100459.75
2023-03-19T05:23:40.212Z,100487.66
2023-03-19T05:26:06.915Z,100519.34
2023-03-19T05:28:33.401Z,100487.00
2023-03-19T05:30:59.882Z,100478.06
2023-03-19T05:33:26.834Z,100334.47
2023-03-19T05:35:53.366Z,100513.00
2023-03-19T05:38:19.924Z,100436.47
2023-03-19T05:40:46.949Z,100487.66
2023-03-19T05:43:14.055Z,100526.84
2023-03-19T05:45:40.484Z,100511.53
2023-03-19T05:48:06.933Z,100383.63
2023-03-19T05:50:35.962Z,100484.41
2023-03-19T05:53:03.319Z,100377.09
2023-03-19T05:55:29.681Z,100394.34
2023-03-19T05:57:56.618Z,100459.53
2023-03-19T06:00:23.208Z,100526.84
2023-03-19T06:02:49.632Z,100515.47
2023-03-19T06:05:16.659Z,100439.06
2023-03-19T06:07:43.326Z,100427.31
2023-03-19T06:10:10.150Z,100456.31
2023-03-19T06:12:37.024Z,100477.03
2023-03-19T06:15:03.792Z,100446.38
2023-03-19T06:17:30.644Z,100396.47
2023-03-19T06:19:57.104Z,100499.75
2023-03-19T06:22:23.542Z,100563.28
2023-03-19T06:24:49.982Z,100577.13
2023-03-19T06:27:16.346Z,100490.16
2023-03-19T06:29:42.848Z,100502.28
2023-03-19T06:32:09.733Z,100496.13
2023-03-19T06:34:36.280Z,100538.06
2023-03-19T06:37:02.676Z,100549.16
2023-03-19T06:39:29.105Z,100569.88
2023-03-19T06:41:55.782Z,100559.75
2023-03-19T06:44:22.219Z,100506.53
2023-03-19T06:46:48.629Z,100447.28
2023-03-19T06:49:15.432Z,100448.59
2023-03-19T06:51:41.886Z,100426.09
2023-03-19T06:54:08.333Z,100503.50
2023-03-19T06:56:34.698Z,100481.59
2023-03-19T06:59:02.289Z,100459.84
2023-03-19T07:01:28.896Z,100480.59
2023-03-19T07:03:57.109Z,100484.78
2023-03-19T07:06:23.682Z,100572.13
2023-03-19T07:08:50.082Z,100577.97
2023-03-19T07:11:16.604Z,100457.00
2023-03-19T07:13:43.121Z,100583.91
2023-03-19T07:16:09.733Z,100579.47
2023-03-19T07:18:36.268Z,100572.38
2023-03-19T07:21:02.756Z,100574.53
2023-03-19T07:23:29.246Z,100589.44
2023-03-19T07:25:55.739Z,100528.66
2023-03-19T07:28:23.135Z,100492.09
2023-03-19T07:30:52.302Z,100472.91
2023-03-19T07:33:19.676Z,100531.47
2023-03-19T07:35:46.467Z,100513.91
2023-03-19T07:38:12.933Z,100490.22
2023-03-19T07:40:43.405Z,100472.63
2023-03-19T07:43:12.112Z,100551.28
2023-03-19T07:45:38.529Z,100479.00
2023-03-19T07:48:05.877Z,100579.16
2023-03-19T07:50:32.992Z,100570.56
2023-03-19T07:52:59.508Z,100581.28
2023-03-19T07:55:25.967Z,100584.38
2023-03-19T07:57:52.542Z,100491.28
2023-03-19T08:00:19.458Z,100625.38
2023-03-19T08:02:46.341Z,100607.72
2023-03-19T08:05:12.758Z,100464.97
2023-03-19T08:07:39.272Z,100579.28
2023-03-19T08:10:06.276Z,100388.31
2023-03-19T08:12:34.463Z,100559.88
2023-03-19T08:15:00.858Z,100525.47
2023-03-19T08:17:27.284Z,100478.06
2023-03-19T08:19:53.686Z,100487.34
2023-03-19T08:22:20.128Z,100487.81
2023-03-19T08:24:46.489Z,100558.44
2023-03-19T08:27:13.028Z,100528.13
2023-03-19T08:29:39.390Z,100593.75
2023-03-19T08:32:06.438Z,100606.56
2023-03-19T08:34:33.237Z,100625.16
2023-03-19T08:36:59.604Z,100505.41
2023-03-19T08:39:26.179Z,100567.13
2023-03-19T08:41:52.506Z,100481.66
2023-03-19T08:44:18.890Z,100537.50
2023-03-19T08:46:45.613Z,100509.88
2023-03-19T08:49:12.029Z,100548.78
2023-03-19T08:51:38.514Z,100616.88
2023-03-19T08:54:05.306Z,100612.84
2023-03-19T08:56:31.773Z,100639.38
2023-03-19T08:58:58.312Z,100628.44
2023-03-19T09:01:24.837Z,100607.44
2023-03-19T09:03:51.213Z,100626.44
2023-03-19T09:06:17.778Z,100569.22
2023-03-19T09:08:44.867Z,100610.88
2023-03-19T09:11:11.613Z,100625.47
2023-03-19T09:13:38.346Z,100646.16
2023-03-19T09:16:05.739Z,100563.75
2023-03-19T09:18:38.388Z,100461.19
2023-03-19T09:21:05.154Z,100580.88
2023-03-19T09:23:31.536Z,100526.84
2023-03-19T09:25:58.051Z,100661.56
2023-03-19T09:28:24.751Z,100648.00
2023-03-19T09:30:52.134Z,100530.34
2023-03-19T09:33:20.254Z,100606.13
2023-03-19T09:35:55.045Z,100573.16
2023-03-19T09:38:27.365Z,100599.72
2023-03-19T09:41:14.652Z,100582.31
2023-03-19T09:43:56.751Z,100687.44
2023-03-19T09:46:32.077Z,100658.44
2023-03-19T09:49:07.101Z,100672.19
2023-03-19T09:51:43.315Z,100602.22
2023-03-19T09:54:42.996Z,100643.94
2023-03-19T09:57:11.370Z,100667.44
2023-03-19T09:59:39.504Z,100686.41
2023-03-19T10:02:30.799Z,100686.66
2023-03-19T10:05:14.227Z,100694.63
2023-03-19T10:08:05.704Z,100694.06
2023-03-19T10:11:07.514Z,100670.16
2023-03-19T10:14:02.534Z,100697.97
2023-03-19T10:16:29.931Z,100706.06
2023-03-19T10:19:03.270Z,100572.25
2023-03-19T10:21:39.753Z,100592.78
2023-03-19T10:24:21.709Z,100708.69
2023-03-19T10:26:49.781Z,100690.75
2023-03-19T10:29:22.336Z,100630.19
2023-03-19T10:31:55.385Z,100679.88
2023-03-19T10:34:21.884Z,100703.91
2023-03-19T10:36:48.410Z,100707.09
2023-03-19T10:39:18.987Z,100607.78
2023-03-19T10:42:08.391Z,100711.34
2023-03-19T10:44:38.813Z,100684.28
2023-03-19T10:47:16.810Z,100602.22
2023-03-19T10:49:43.185Z,100698.25
2023-03-19T10:52:30.875Z,100705.13
2023-03-19T10:55:04.588Z,100706.88
2023-03-19T10:57:32.013Z,100702.75
2023-03-19T11:00:05.946Z,100714.75
2023-03-19T11:02:33.539Z,100700.91
2023-03-19T11:05:12.836Z,100646.03
2023-03-19T11:07:39.911Z,100624.38
2023-03-19T11:10:15.681Z,100724.25
2023-03-19T11:12:47.442Z,100702.72
2023-03-19T11:15:27.589Z,100694.41
2023-03-19T11:17:59.729Z,100710.25
2023-03-19T11:20:35.458Z,100510.09
2023-03-19T11:23:07.715Z,100696.13
2023-03-19T11:25:41.520Z,100611.66
2023-03-19T11:28:12.382Z,100642.78
2023-03-19T11:31:02.024Z,100684.53
2023-03-19T11:33:53.555Z,100710.75
2023-03-19T11:36:27.345Z,100713.44
2023-03-19T11:39:11.487Z,100682.19
2023-03-19T11:41:59.969Z,100710.88
2023-03-19T11:44:59.792Z,100644.56
2023-03-19T11:47:30.533Z,100694.22
2023-03-19T11:50:19.188Z,100538.84
2023-03-19T11:53:13.266Z,100707.19
2023-03-19T11:55:39.794Z,100709.91
2023-03-19T11:58:28.840Z,100701.50
2023-03-19T12:01:15.998Z,100671.22
2023-03-19T12:04:10.076Z,100696.66
2023-03-19T12:07:03.280Z,100717.56
2023-03-19T12:09:51.998Z,100702.81
2023-03-19T12:12:28.372Z,100679.25
2023-03-19T12:15:19.792Z,100709.69
2023-03-19T12:18:13.550Z,100708.06
2023-03-19T12:21:17.375Z,100715.16
2023-03-19T12:23:43.708Z,100717.59
2023-03-19T12:26:20.983Z,100672.72
2023-03-19T12:29:04.485Z,100718.00
2023-03-19T12:31:57.738Z,100654.72
2023-03-19T12:34:36.541Z,100646.91
2023-03-19T12:37:11.981Z,100695.03
2023-03-19T12:39:47.177Z,100515.22
2023-03-19T12:42:18.737Z,100718.19
2023-03-19T12:44:52.670Z,100597.00
2023-03-19T12:47:42.048Z,100714.22
2023-03-19T12:50:15.303Z,100630.56
2023-03-19T12:52:44.333Z,100626.59
2023-03-19T12:55:17.011Z,100728.31
2023-03-19T12:58:03.888Z,100699.56
2023-03-19T13:00:42.372Z,100727.56
2023-03-19T13:03:25.648Z,100611.69
2023-03-19T13:06:10.981Z,100727.25
2023-03-19T13:08:45.035Z,100689.94
2023-03-19T13:11:17.549Z,100566.16
2023-03-19T13:14:11.457Z,100704.41
2023-03-19T13:16:48.747Z,100725.59
2023-03-19T13:19:40.329Z,100722.28
2023-03-19T13:22:12.382Z,100712.16
2023-03-19T13:24:41.590Z,100626.47
2023-03-19T13:27:15.639Z,100600.00
2023-03-19T13:29:58.433Z,100680.53
2023-03-19T13:32:54.403Z,100719.88
2023-03-19T13:35:36.494Z,100675.72
2023-03-19T13:38:22.634Z,100685.72
2023-03-19T13:40:52.043Z,100675.19
2023-03-19T13:43:29.278Z,100693.59
2023-03-19T13:46:16.021Z,100697.06
2023-03-19T13:48:45.517Z,100704.59
2023-03-19T13:51:19.083Z,100697.59
2023-03-19T13:53:58.286Z,100694.31
2023-03-19T13:56:30.288Z,100602.06
2023-03-19T13:59:15.691Z,100701.00
2023-03-19T14:01:47.235Z,100610.78
2023-03-19T14:04:22.795Z,100618.75
2023-03-19T14:06:53.526Z,100694.50
2023-03-19T14:09:34.774Z,100707.25
2023-03-19T14:12:20.517Z,100680.97
2023-03-19T14:14:50.539Z,100633.78
2023-03-19T14:17:22.542Z,100614.88
2023-03-19T14:19:50.937Z,100709.16
2023-03-19T14:22:39.958Z,100703.22
2023-03-19T14:25:23.830Z,100709.78
2023-03-19T14:27:54.061Z,100722.31
2023-03-19T14:30:35.100Z,100541.00
2023-03-19T14:33:06.922Z,100712.50
2023-03-19T14:35:39.536Z,100676.31
2023-03-19T14:38:25.204Z,100720.41
2023-03-19T14:40:52.773Z,100730.59
2023-03-19T14:43:31.019Z,100743.03
2023-03-19T14:46:03.938Z,100714.16
2023-03-19T14:48:52.032Z,100740.59
2023-03-19T14:51:51.818Z,100704.31
2023-03-19T14:54:30.559Z,100740.16
2023-03-19T14:56:57.779Z,100671.50
2023-03-19T14:59:24.266Z,100717.44
2023-03-19T15:01:53.451Z,100747.72
2023-03-19T15:04:25.426Z,100703.41
2023-03-19T15:06:55.924Z,100669.97
2023-03-19T15:09:27.281Z,100737.16
2023-03-19T15:12:14.386Z,100711.44
2023-03-19T15:14:56.312Z,100733.44
2023-03-19T15:17:29.881Z,100734.09
2023-03-19T15:19:59.910Z,100737.66
2023-03-19T15:22:33.529Z,100649.94
2023-03-19T15:25:08.814Z,100743.16
2023-03-19T15:27:35.929Z,100651.09
2023-03-19T15:30:14.375Z,100711.31
2023-03-19T15:32:54.428Z,100647.19
2023-03-19T15:35:34.367Z,100751.19
2023-03-19T15:38:06.452Z,100658.47
2023-03-19T15:40:36.808Z,100735.88
2023-03-19T15:43:05.257Z,100727.16
2023-03-19T15:45:33.968Z,100747.50
2023-03-19T15:48:25.120Z,100746.44
2023-03-19T15:50:57.533Z,100716.06
2023-03-19T15:53:29.517Z,100762.38
2023-03-19T15:55:56.311Z,100748.94
2023-03-19T15:58:27.826Z,100631.00
2023-03-19T16:00:55.570Z,100777.53
2023-03-19T16:04:20.892Z,100696.94
2023-03-19T16:06:49.409Z,100723.16
2023-03-19T16:09:29.487Z,100774.13
2023-03-19T16:11:56.936Z,100782.03
2023-03-19T16:14:24.057Z,100768.19
2023-03-19T16:16:51.351Z,100781.81
2023-03-19T16:19:32.375Z,100693.44
2023-03-19T16:21:59.964Z,100754.81
2023-03-19T16:24:37.514Z,100782.34
2023-03-19T16:27:07.892Z,100802.59
2023-03-19T16:29:39.175Z,100692.59
2023-03-19T16:32:11.770Z,100803.13
2023-03-19T16:34:46.612Z,100806.84
2023-03-19T16:37:25.354Z,100803.94
2023-03-19T16:39:57.976Z,100764.91
2023-03-19T16:42:33.757Z,100806.28
2023-03-19T16:45:17.525Z,100749.88
2023-03-19T16:47:45.811Z,100705.38
2023-03-19T16:50:13.732Z,100804.38
2023-03-19T16:52:41.409Z,100760.00
2023-03-19T16:55:21.842Z,100739.94
2023-03-19T16:58:18.940Z,100840.66
2023-03-19T17:00:47.183Z,100744.97
2023-03-19T17:03:18.538Z,100781.03
2023-03-19T17:05:46.536Z,100650.00
2023-03-19T17:08:13.798Z,100787.81
2023-03-19T17:10:45.623Z,100838.81
2023-03-19T17:13:29.697Z,100668.66
2023-03-19T17:16:00.846Z,100856.97
2023-03-19T17:18:30.805Z,100703.66
2023-03-19T17:21:02.111Z,100833.09
2023-03-19T17:23:37.684Z,100863.16
2023-03-19T17:26:16.159Z,100839.63
2023-03-19T17:28:45.849Z,100749.25
2023-03-19T17:31:29.101Z,100891.06
2023-03-19T17:34:02.670Z,100892.66
2023-03-19T17:37:03.337Z,100838.16
2023-03-19T17:39:33.188Z,100876.63
2023-03-19T17:41:59.991Z,100878.44
2023-03-19T17:44:27.869Z,100883.63
2023-03-19T17:46:55.850Z,100908.59
2023-03-19T17:49:32.561Z,100902.78
2023-03-19T17:51:59.712Z,100809.94
2023-03-19T17:54:27.134Z,100886.81
2023-03-19T17:56:55.194Z,100898.13
2023-03-19T17:59:22.315Z,100837.63
2023-03-19T18:01:48.939Z,100829.50
2023-03-19T18:04:20.047Z,100933.38
2023-03-19T18:06:51.045Z,100939.28
2023-03-19T18:09:25.846Z,100948.69
2023-03-19T18:11:52.597Z,100846.28
2023-03-19T18:14:19.035Z,100789.31
2023-03-19T18:16:46.424Z,100821.84
2023-03-19T18:19:40.451Z,100947.91
2023-03-19T18:22:18.389Z,100807.25
2023-03-19T18:24:45.306Z,100956.22
2023-03-19T18:27:12.458Z,100839.28
2023-03-19T18:29:41.241Z,100964.03
2023-03-19T18:32:13.900Z,100840.19
2023-03-19T18:34:40.508Z,100815.78
2023-03-19T18:37:07.074Z,100975.03
2023-03-19T18:39:38.010Z,100857.75
2023-03-19T18:42:04.464Z,100897.72
2023-03-19T18:44:30.934Z,100925.41
2023-03-19T18:46:57.931Z,100871.47
2023-03-19T18:49:27.475Z,100985.53
2023-03-19T18:52:02.601Z,100837.97
2023-03-19T18:54:31.023Z,100797.75
2023-03-19T18:56:59.906Z,100835.56
2023-03-19T18:59:30.332Z,100906.16
2023-03-19T19:02:22.403Z,101031.66
2023-03-19T19:04:49.193Z,100854.25
2023-03-19T19:07:19.184Z,100945.56
2023-03-19T19:09:51.059Z,100915.63
2023-03-19T19:12:18.517Z,100945.56
2023-03-19T19:14:45.670Z,100867.91
2023-03-19T19:17:26.448Z,100961.00
2023-03-19T19:19:53.100Z,100912.91
2023-03-19T19:22:20.332Z,100997.84
2023-03-19T19:24:47.008Z,100951.63
2023-03-19T19:27:26.496Z,100900.84
2023-03-19T19:29:53.184Z,101062.66
2023-03-19T19:32:28.629Z,100956.28
2023-03-19T19:34:55.326Z,100828.94
2023-03-19T19:37:24.794Z,100927.72
2023-03-19T19:39:53.877Z,100983.09
2023-03-19T19:42:22.562Z,101010.00
2023-03-19T19:44:55.640Z,100904.72
2023-03-19T19:47:24.436Z,100950.28
2023-03-19T19:49:51.008Z,100984.09
2023-03-19T19:52:20.626Z,101082.78
2023-03-19T19:54:48.175Z,101024.53
2023-03-19T19:58:19.354Z,100874.56
2023-03-19T20:01:00.143Z,101039.75
2023-03-19T20:03:31.357Z,101137.75
2023-03-19T20:06:19.319Z,101147.78
2023-03-19T20:09:23.717Z,101137.84
2023-03-19T20:11:50.736Z,101112.19
2023-03-19T20:14:35.783Z,101045.59
2023-03-19T20:17:07.531Z,100962.34
2023-03-19T20:19:34.147Z,100918.97
2023-03-19T20:22:00.844Z,101062.56
2023-03-19T20:24:27.380Z,101132.13
2023-03-19T20:29:39.950Z,100987.66
2023-03-19T20:32:26.010Z,101086.13
2023-03-19T20:34:52.650Z,101010.03
2023-03-19T20:37:19.190Z,101035.44
2023-03-19T20:39:45.997Z,101176.56
2023-03-19T20:42:16.101Z,101180.50
2023-03-19T20:44:46.056Z,100954.28
2023-03-19T20:47:20.462Z,101175.97
2023-03-19T20:49:58.050Z,101001.09
2023-03-19T20:52:24.473Z,101133.34
2023-03-19T20:54:59.535Z,100969.78
2023-03-19T20:57:29.238Z,101176.19
2023-03-19T20:59:55.776Z,101124.00
2023-03-19T21:02:25.776Z,101153.66
2023-03-19T21:04:53.154Z,101076.19
2023-03-19T21:07:29.070Z,101151.81
2023-03-19T21:09:57.587Z,101081.75
2023-03-19T21:12:29.814Z,101111.38
2023-03-19T21:14:57.886Z,101105.84
2023-03-19T21:17:25.102Z,101105.94
2023-03-19T21:19:51.455Z,101199.34
2023-03-19T21:22:24.939Z,101093.44
2023-03-19T21:24:57.004Z,101202.25
2023-03-19T21:27:26.246Z,101196.13
2023-03-19T21:29:53.726Z,101203.06
2023-03-19T21:32:20.286Z,101198.75
2023-03-19T21:34:48.848Z,101007.56
2023-03-19T21:37:18.046Z,101173.28
2023-03-19T21:39:45.510Z,101085.06
2023-03-19T21:42:17.482Z,101086.78
2023-03-19T21:44:47.860Z,101073.78
2023-03-19T21:47:18.810Z,101205.13
2023-03-19T21:49:45.165Z,101164.03
2023-03-19T21:52:18.277Z,101181.50
2023-03-19T21:54:45.068Z,101163.09
2023-03-19T21:57:13.547Z,101197.63
2023-03-19T21:59:41.307Z,101207.72
2023-03-19T22:02:41.643Z,101204.34
2023-03-19T22:05:26.452Z,101192.47
2023-03-19T22:07:53.402Z,101182.09
2023-03-19T22:10:21.969Z,101022.81
2023-03-19T22:12:49.137Z,101092.03
2023-03-19T22:15:25.271Z,101199.41
2023-03-19T22:17:51.785Z,101115.16
2023-03-19T22:20:21.095Z,101211.88
2023-03-19T22:22:49.730Z,101127.00
2023-03-19T22:25:17.209Z,101203.13
2023-03-19T22:27:46.990Z,101111.34
2023-03-19T22:30:29.782Z,101166.78
2023-03-19T22:32:57.308Z,101225.50
2023-03-19T22:35:24.058Z,101166.66
2023-03-19T22:37:50.536Z,101079.44
2023-03-19T22:40:18.237Z,101004.13
2023-03-19T22:42:46.983Z,101197.81
2023-03-19T22:45:26.174Z,101121.59
2023-03-19T22:47:57.122Z,101025.09
2023-03-19T22:50:26.437Z,101011.00
2023-03-19T22:52:56.425Z,101132.34
2023-03-19T22:55:23.791Z,101222.31
2023-03-19T22:57:51.006Z,101215.38
2023-03-19T23:00:23.780Z,101126.16
2023-03-19T23:02:57.753Z,101146.22
2023-03-19T23:05:27.692Z,101224.56
2023-03-19T23:07:56.089Z,101053.56
2023-03-19T23:10:25.624Z,101004.75
2023-03-19T23:12:53.341Z,101055.03
2023-03-19T23:15:20.868Z,101262.66
2023-03-19T23:17:47.731Z,101218.13
2023-03-19T23:20:17.790Z,101100.75
2023-03-19T23:22:45.768Z,101056.44
2023-03-19T23:25:17.083Z,101252.19
2023-03-19T23:27:47.156Z,101254.03
2023-03-19T23:30:28.248Z,101277.16
2023-03-19T23:32:56.162Z,101262.72
2023-03-19T23:35:25.682Z,101269.44
2023-03-19T23:37:54.904Z,101242.66
2023-03-19T23:40:22.864Z,101254.66
2023-03-19T23:42:53.591Z,101122.38
2023-03-19T23:45:31.849Z,101278.28
2023-03-19T23:48:05.299Z,101276.09
2023-03-19T23:50:33.040Z,101041.47
2023-03-19T23:53:00.474Z,101296.00
2023-03-19T23:55:27.055Z,101093.28
2023-03-19T23:57:54.136Z,101274.94
